createdAt,value
2022-09-03T11:06:09.985Z,21.79
2022-09-03T11:11:26.601Z,21.53
2022-09-03T11:16:29.123Z,21.13
2022-09-03T11:21:31.654Z,20.83
2022-09-03T11:26:35.306Z,20.69
2022-09-03T11:32:13.058Z,20.73
2022-09-03T11:37:19.716Z,20.67
2022-09-03T11:42:28.033Z,20.39
2022-09-03T11:47:40.779Z,20.23
2022-09-03T11:52:42.511Z,20.08
2022-09-03T11:57:44.297Z,19.92
2022-09-03T12:02:48.887Z,19.76
2022-09-03T12:07:59.628Z,19.65
2022-09-03T12:13:05.830Z,19.55
2022-09-03T12:18:22.711Z,19.59
2022-09-03T12:23:30.074Z,19.87
2022-09-03T12:28:35.918Z,19.79
2022-09-03T12:33:40.956Z,19.68
2022-09-03T12:39:18.548Z,19.87
2022-09-03T12:44:53.903Z,20.09
2022-09-03T12:49:58.537Z,20.20
2022-09-03T12:55:04.477Z,20.45
2022-09-03T13:00:10.661Z,20.69
2022-09-03T13:05:15.207Z,20.80
2022-09-03T13:10:24.036Z,20.88
2022-09-03T13:15:26.132Z,20.97
2022-09-03T13:20:29.442Z,20.96
2022-09-03T13:25:41.291Z,20.85
2022-09-03T13:30:52.684Z,20.79
2022-09-03T13:36:06.110Z,20.97
2022-09-03T13:41:10.854Z,20.99
2022-09-03T13:46:22.263Z,20.99
2022-09-03T13:51:27.898Z,21.57
2022-09-03T13:56:36.601Z,21.91
2022-09-03T14:01:44.621Z,21.71
2022-09-03T14:07:03.320Z,21.45
2022-09-03T14:12:17.338Z,21.68
2022-09-03T14:17:26.837Z,22.28
2022-09-03T14:22:31.596Z,22.24
2022-09-03T14:27:35.016Z,22.14
2022-09-03T14:32:59.577Z,22.05
2022-09-03T14:38:07.375Z,21.69
2022-09-03T14:43:30.965Z,21.35
2022-09-03T14:48:41.669Z,21.32
2022-09-03T14:54:05.215Z,21.55
2022-09-03T14:59:20.496Z,21.51
2022-09-03T15:04:22.113Z,21.34
2022-09-03T15:09:40.294Z,21.30
2022-09-03T15:14:58.651Z,21.52
2022-09-03T15:20:24.211Z,21.80
2022-09-03T15:25:39.525Z,21.60
2022-09-03T15:30:44.286Z,21.40
2022-09-03T15:35:56.748Z,21.28
2022-09-03T15:41:02.684Z,20.84
2022-09-03T15:46:10.913Z,20.57
2022-09-03T15:51:15.667Z,20.42
2022-09-03T15:56:39.327Z,20.28
2022-09-03T16:01:41.398Z,20.28
2022-09-03T16:06:49.531Z,20.32
2022-09-03T16:12:09.900Z,20.28
2022-09-03T16:17:34.950Z,20.30
2022-09-03T16:22:49.387Z,20.53
2022-09-03T16:28:15.146Z,20.53
2022-09-03T16:33:28.394Z,20.52
2022-09-03T16:39:02.220Z,20.51
2022-09-03T16:44:38.774Z,20.67
2022-09-03T16:49:51.556Z,20.57
2022-09-03T16:54:55.950Z,20.33
2022-09-03T17:00:02.996Z,19.93
2022-09-03T17:05:23.747Z,19.25
2022-09-03T17:10:28.639Z,18.67
2022-09-03T17:15:30.403Z,18.15
2022-09-03T17:20:35.097Z,17.74
2022-09-03T17:25:38.698Z,17.44
2022-09-03T17:30:56.899Z,17.29
2022-09-03T17:36:06.396Z,17.06
2022-09-03T17:41:29.089Z,16.87
2022-09-03T17:46:49.669Z,16.71
2022-09-03T17:52:14.777Z,16.57
2022-09-03T17:57:21.973Z,16.37
2022-09-03T18:02:39.240Z,16.12
2022-09-03T18:07:47.433Z,15.84
2022-09-03T18:13:14.273Z,15.62
2022-09-03T18:18:27.651Z,15.39
2022-09-03T18:23:58.397Z,15.15
2022-09-03T18:29:18.609Z,14.91
2022-09-03T18:34:40.455Z,14.71
2022-09-03T18:40:03.164Z,14.58
2022-09-03T18:45:48.353Z,14.49
2022-09-03T18:51:16.727Z,14.40
2022-09-03T18:56:47.989Z,14.31
2022-09-03T19:02:08.332Z,14.21
2022-09-03T19:07:39.729Z,14.15
2022-09-03T19:13:23.619Z,14.08
2022-09-03T19:19:03.461Z,14.01
2022-09-03T19:24:24.057Z,13.94
2022-09-03T19:30:03.638Z,13.90
2022-09-03T19:35:28.972Z,13.85
2022-09-03T19:41:08.178Z,13.78
2022-09-03T19:46:32.001Z,13.72
2022-09-03T19:52:04.206Z,13.61
2022-09-03T19:57:24.764Z,13.50
2022-09-03T20:02:59.134Z,13.47
2022-09-03T20:08:20.295Z,13.47
2022-09-03T20:14:02.216Z,13.47
2022-09-03T20:19:10.941Z,13.45
2022-09-03T20:24:12.579Z,13.42
2022-09-03T20:29:17.445Z,13.39
2022-09-03T20:34:26.121Z,13.41
2022-09-03T20:39:33.905Z,13.37
2022-09-03T20:44:50.692Z,13.30
2022-09-03T20:50:10.999Z,13.24
2022-09-03T20:55:17.636Z,13.20
2022-09-03T21:00:21.232Z,13.23
2022-09-03T21:05:27.218Z,13.30
2022-09-03T21:10:34.281Z,13.43
2022-09-03T21:15:35.919Z,13.59
2022-09-03T21:20:40.869Z,13.70
2022-09-03T21:25:49.917Z,13.80
2022-09-03T21:30:58.481Z,13.90
2022-09-03T21:36:25.224Z,13.97
2022-09-03T21:41:49.477Z,14.08
2022-09-03T21:46:57.053Z,14.08
2022-09-03T21:52:02.039Z,14.05
2022-09-03T21:57:22.586Z,14.07
2022-09-03T22:02:28.657Z,14.16
2022-09-03T22:07:33.413Z,14.23
2022-09-03T22:12:35.053Z,14.27
2022-09-03T22:17:46.197Z,14.27
2022-09-03T22:22:56.639Z,14.26
2022-09-03T22:28:13.073Z,14.28
2022-09-03T22:33:47.460Z,14.30
2022-09-03T22:39:08.927Z,14.24
2022-09-03T22:44:30.862Z,14.22
2022-09-03T22:49:45.533Z,14.18
2022-09-03T22:54:54.621Z,14.07
2022-09-03T23:00:06.475Z,13.92
2022-09-03T23:05:08.663Z,13.72
2022-09-03T23:10:13.409Z,13.52
2022-09-03T23:15:30.311Z,13.35
2022-09-03T23:20:34.217Z,13.25
2022-09-03T23:25:37.781Z,13.04
2022-09-03T23:30:41.779Z,12.85
2022-09-03T23:35:53.576Z,12.69
2022-09-03T23:40:58.067Z,12.56
2022-09-03T23:46:14.482Z,12.46
2022-09-03T23:51:22.797Z,12.37
2022-09-03T23:56:32.204Z,12.30
